sensor_id;sensor_type;location;lat;lon;timestamp;pressure;altitude;pressure_sealevel;temperature;humidity
7660;BME280;3872;47.902;8.162;2022-07-10T00:02:02;92628.53;;;12.11;100.00
7660;BME280;3872;47.902;8.162;2022-07-10T00:04:29;92630.28;;;11.97;100.00
7660;BME280;3872;47.902;8.162;2022-07-10T00:06:55;92632.94;;;11.97;100.00
7660;BME280;3872;47.902;8.162;2022-07-10T00:09:23;92631.16;;;12.11;100.00
7660;BME280;3872;47.902;8.162;2022-07-10T00:11:50;92620.25;;;12.18;100.00
7660;BME280;3872;47.902;8.162;2022-07-10T00:14:16;92622.25;;;12.26;100.00
7660;BME280;3872;47.902;8.162;2022-07-10T00:16:43;92617.84;;;12.21;100.00
7660;BME280;3872;47.902;8.162;2022-07-10T00:19:11;92616.28;;;12.20;100.00
7660;BME280;3872;47.902;8.162;2022-07-10T00:21:37;92613.56;;;12.25;100.00
7660;BME280;3872;47.902;8.162;2022-07-10T00:24:04;92622.47;;;12.10;100.00
7660;BME280;3872;47.902;8.162;2022-07-10T00:26:31;92616.56;;;12.19;100.00
7660;BME280;3872;47.902;8.162;2022-07-10T00:28:57;92623.09;;;12.02;100.00
7660;BME280;3872;47.902;8.162;2022-07-10T00:31:24;92617.25;;;12.05;100.00
7660;BME280;3872;47.902;8.162;2022-07-10T00:33:50;92604.22;;;12.14;100.00
7660;BME280;3872;47.902;8.162;2022-07-10T00:36:18;92607.06;;;11.99;100.00
7660;BME280;3872;47.902;8.162;2022-07-10T00:38:45;92599.97;;;11.94;100.00
7660;BME280;3872;47.902;8.162;2022-07-10T00:41:12;92602.06;;;11.73;100.00
7660;BME280;3872;47.902;8.162;2022-07-10T00:43:52;92615.81;;;11.94;100.00
7660;BME280;3872;47.902;8.162;2022-07-10T00:46:18;92625.59;;;10.93;100.00
7660;BME280;3872;47.902;8.162;2022-07-10T00:48:46;92621.94;;;10.89;100.00
7660;BME280;3872;47.902;8.162;2022-07-10T00:51:13;92617.78;;;11.12;100.00
7660;BME280;3872;47.902;8.162;2022-07-10T00:53:41;92614.25;;;11.22;100.00
7660;BME280;3872;47.902;8.162;2022-07-10T00:56:09;92617.94;;;11.21;100.00
7660;BME280;3872;47.902;8.162;2022-07-10T00:58:37;92612.69;;;11.45;100.00
7660;BME280;3872;47.902;8.162;2022-07-10T01:01:05;92617.34;;;11.53;100.00
7660;BME280;3872;47.902;8.162;2022-07-10T01:03:32;92605.78;;;11.49;100.00
7660;BME280;3872;47.902;8.162;2022-07-10T01:05:58;92611.78;;;11.30;100.00
7660;BME280;3872;47.902;8.162;2022-07-10T01:08:25;92614.31;;;11.41;100.00
7660;BME280;3872;47.902;8.162;2022-07-10T01:10:55;92604.84;;;11.39;100.00
7660;BME280;3872;47.902;8.162;2022-07-10T01:13:21;92605.56;;;11.45;100.00
7660;BME280;3872;47.902;8.162;2022-07-10T01:15:48;92605.91;;;11.38;100.00
7660;BME280;3872;47.902;8.162;2022-07-10T01:18:15;92603.25;;;11.38;100.00
7660;BME280;3872;47.902;8.162;2022-07-10T01:20:42;92604.38;;;11.32;100.00
7660;BME280;3872;47.902;8.162;2022-07-10T01:23:10;92598.50;;;11.41;100.00
7660;BME280;3872;47.902;8.162;2022-07-10T01:25:36;92597.03;;;11.06;100.00
7660;BME280;3872;47.902;8.162;2022-07-10T01:28:03;92597.34;;;10.99;100.00
7660;BME280;3872;47.902;8.162;2022-07-10T01:30:31;92600.31;;;10.92;100.00
7660;BME280;3872;47.902;8.162;2022-07-10T01:32:57;92601.41;;;11.15;100.00
7660;BME280;3872;47.902;8.162;2022-07-10T01:35:24;92600.63;;;11.15;100.00
7660;BME280;3872;47.902;8.162;2022-07-10T01:37:50;92603.28;;;11.10;100.00
7660;BME280;3872;47.902;8.162;2022-07-10T01:40:18;92600.97;;;11.08;100.00
7660;BME280;3872;47.902;8.162;2022-07-10T01:42:45;92588.84;;;11.07;100.00
7660;BME280;3872;47.902;8.162;2022-07-10T01:45:12;92586.03;;;10.70;100.00
7660;BME280;3872;47.902;8.162;2022-07-10T01:47:39;92590.44;;;10.79;100.00
7660;BME280;3872;47.902;8.162;2022-07-10T01:50:06;92596.56;;;10.98;100.00
7660;BME280;3872;47.902;8.162;2022-07-10T01:52:33;92590.13;;;11.10;100.00
7660;BME280;3872;47.902;8.162;2022-07-10T01:54:59;92589.00;;;11.16;100.00
7660;BME280;3872;47.902;8.162;2022-07-10T01:57:28;92588.25;;;11.15;100.00
7660;BME280;3872;47.902;8.162;2022-07-10T01:59:54;92592.75;;;11.10;100.00
7660;BME280;3872;47.902;8.162;2022-07-10T02:02:21;92583.16;;;10.95;100.00
7660;BME280;3872;47.902;8.162;2022-07-10T02:04:47;92587.38;;;10.96;100.00
7660;BME280;3872;47.902;8.162;2022-07-10T02:07:15;92583.94;;;10.95;100.00
7660;BME280;3872;47.902;8.162;2022-07-10T02:09:42;92588.16;;;10.96;100.00
7660;BME280;3872;47.902;8.162;2022-07-10T02:12:09;92582.09;;;10.96;100.00
7660;BME280;3872;47.902;8.162;2022-07-10T02:14:38;92574.38;;;11.05;100.00
7660;BME280;3872;47.902;8.162;2022-07-10T02:17:06;92587.63;;;10.94;100.00
7660;BME280;3872;47.902;8.162;2022-07-10T02:19:33;92594.19;;;11.26;100.00
7660;BME280;3872;47.902;8.162;2022-07-10T02:22:00;92598.06;;;11.33;100.00
7660;BME280;3872;47.902;8.162;2022-07-10T02:24:26;92591.69;;;11.11;100.00
7660;BME280;3872;47.902;8.162;2022-07-10T02:26:53;92590.56;;;10.93;100.00
7660;BME280;3872;47.902;8.162;2022-07-10T02:29:22;92592.81;;;11.05;100.00
7660;BME280;3872;47.902;8.162;2022-07-10T02:31:51;92596.41;;;11.37;100.00
7660;BME280;3872;47.902;8.162;2022-07-10T02:34:17;92595.25;;;11.25;100.00
7660;BME280;3872;47.902;8.162;2022-07-10T02:36:44;92593.41;;;10.96;100.00
7660;BME280;3872;47.902;8.162;2022-07-10T02:39:10;92602.75;;;10.84;100.00
7660;BME280;3872;47.902;8.162;2022-07-10T02:41:37;92594.84;;;10.84;100.00
7660;BME280;3872;47.902;8.162;2022-07-10T02:44:04;92595.19;;;11.06;100.00
7660;BME280;3872;47.902;8.162;2022-07-10T02:46:30;92607.88;;;10.99;100.00
7660;BME280;3872;47.902;8.162;2022-07-10T02:48:58;92594.44;;;11.01;100.00
7660;BME280;3872;47.902;8.162;2022-07-10T02:51:25;92602.09;;;10.97;100.00
7660;BME280;3872;47.902;8.162;2022-07-10T02:53:51;92597.69;;;10.92;100.00
7660;BME280;3872;47.902;8.162;2022-07-10T02:56:18;92595.69;;;11.08;100.00
7660;BME280;3872;47.902;8.162;2022-07-10T02:58:45;92584.66;;;11.30;100.00
7660;BME280;3872;47.902;8.162;2022-07-10T03:01:11;92588.31;;;11.34;100.00
7660;BME280;3872;47.902;8.162;2022-07-10T03:03:38;92587.47;;;11.15;100.00
7660;BME280;3872;47.902;8.162;2022-07-10T03:06:06;92583.28;;;11.09;100.00
7660;BME280;3872;47.902;8.162;2022-07-10T03:08:32;92586.44;;;11.11;100.00
7660;BME280;3872;47.902;8.162;2022-07-10T03:10:59;92581.78;;;11.03;100.00
7660;BME280;3872;47.902;8.162;2022-07-10T03:13:26;92587.34;;;11.01;100.00
7660;BME280;3872;47.902;8.162;2022-07-10T03:15:53;92578.78;;;10.85;100.00
7660;BME280;3872;47.902;8.162;2022-07-10T03:18:20;92571.50;;;10.77;100.00
7660;BME280;3872;47.902;8.162;2022-07-10T03:20:47;92568.63;;;10.74;100.00
7660;BME280;3872;47.902;8.162;2022-07-10T03:23:15;92572.69;;;10.61;100.00
7660;BME280;3872;47.902;8.162;2022-07-10T03:25:41;92582.22;;;10.81;100.00
7660;BME280;3872;47.902;8.162;2022-07-10T03:28:08;92575.44;;;10.75;100.00
7660;BME280;3872;47.902;8.162;2022-07-10T03:30:34;92581.09;;;10.63;100.00
7660;BME280;3872;47.902;8.162;2022-07-10T03:33:01;92577.88;;;10.66;100.00
7660;BME280;3872;47.902;8.162;2022-07-10T03:35:28;92578.50;;;10.58;100.00
7660;BME280;3872;47.902;8.162;2022-07-10T03:37:56;92582.97;;;10.57;100.00
7660;BME280;3872;47.902;8.162;2022-07-10T03:40:24;92581.94;;;10.58;100.00
7660;BME280;3872;47.902;8.162;2022-07-10T03:42:52;92577.25;;;10.50;100.00
7660;BME280;3872;47.902;8.162;2022-07-10T03:45:18;92578.69;;;10.33;100.00
7660;BME280;3872;47.902;8.162;2022-07-10T03:47:45;92580.56;;;10.27;100.00
7660;BME280;3872;47.902;8.162;2022-07-10T03:50:12;92582.69;;;10.25;100.00
7660;BME280;3872;47.902;8.162;2022-07-10T03:52:38;92578.06;;;10.07;100.00
7660;BME280;3872;47.902;8.162;2022-07-10T03:55:06;92572.47;;;10.18;100.00
7660;BME280;3872;47.902;8.162;2022-07-10T03:57:34;92572.75;;;10.17;100.00
7660;BME280;3872;47.902;8.162;2022-07-10T04:00:18;92571.06;;;10.31;100.00
7660;BME280;3872;47.902;8.162;2022-07-10T04:02:44;92573.75;;;10.26;100.00
7660;BME280;3872;47.902;8.162;2022-07-10T04:05:10;92576.91;;;10.28;100.00
7660;BME280;3872;47.902;8.162;2022-07-10T04:07:37;92582.69;;;10.25;100.00
7660;BME280;3872;47.902;8.162;2022-07-10T04:10:05;92573.25;;;10.19;100.00
7660;BME280;3872;47.902;8.162;2022-07-10T04:12:31;92569.00;;;10.23;100.00
7660;BME280;3872;47.902;8.162;2022-07-10T04:14:59;92569.53;;;10.25;100.00
7660;BME280;3872;47.902;8.162;2022-07-10T04:17:26;92574.78;;;10.25;100.00
7660;BME280;3872;47.902;8.162;2022-07-10T04:19:52;92573.38;;;10.38;100.00
7660;BME280;3872;47.902;8.162;2022-07-10T04:22:19;92573.38;;;10.38;100.00
7660;BME280;3872;47.902;8.162;2022-07-10T04:24:45;92573.25;;;10.19;100.00
7660;BME280;3872;47.902;8.162;2022-07-10T04:27:12;92573.78;;;10.21;100.00
7660;BME280;3872;47.902;8.162;2022-07-10T04:29:40;92579.53;;;10.28;100.00
7660;BME280;3872;47.902;8.162;2022-07-10T04:32:08;92579.69;;;10.42;100.00
7660;BME280;3872;47.902;8.162;2022-07-10T04:34:35;92575.09;;;10.18;100.00
7660;BME280;3872;47.902;8.162;2022-07-10T04:37:02;92585.00;;;10.32;100.00
7660;BME280;3872;47.902;8.162;2022-07-10T04:39:29;92575.28;;;10.32;100.00
7660;BME280;3872;47.902;8.162;2022-07-10T04:41:55;92579.94;;;10.40;100.00
7660;BME280;3872;47.902;8.162;2022-07-10T04:44:22;92576.66;;;10.58;100.00
7660;BME280;3872;47.902;8.162;2022-07-10T04:46:48;92575.38;;;10.56;100.00
7660;BME280;3872;47.902;8.162;2022-07-10T04:49:16;92581.56;;;10.70;100.00
7660;BME280;3872;47.902;8.162;2022-07-10T04:51:43;92584.38;;;10.79;100.00
7660;BME280;3872;47.902;8.162;2022-07-10T04:54:09;92577.41;;;10.93;100.00
7660;BME280;3872;47.902;8.162;2022-07-10T04:56:37;92570.41;;;11.07;100.00
7660;BME280;3872;47.902;8.162;2022-07-10T04:59:03;92578.97;;;11.18;100.00
7660;BME280;3872;47.902;8.162;2022-07-10T05:01:32;92578.75;;;11.38;100.00
7660;BME280;3872;47.902;8.162;2022-07-10T05:03:58;92574.44;;;11.47;100.00
7660;BME280;3872;47.902;8.162;2022-07-10T05:06:26;92580.00;;;11.46;100.00
7660;BME280;3872;47.902;8.162;2022-07-10T05:08:53;92573.94;;;11.45;100.00
7660;BME280;3872;47.902;8.162;2022-07-10T05:11:23;92567.16;;;11.39;100.00
7660;BME280;3872;47.902;8.162;2022-07-10T05:13:51;92573.66;;;11.47;100.00
7660;BME280;3872;47.902;8.162;2022-07-10T05:16:18;92576.41;;;11.60;100.00
7660;BME280;3872;47.902;8.162;2022-07-10T05:18:44;92571.03;;;11.89;100.00
7660;BME280;3872;47.902;8.162;2022-07-10T05:21:11;92582.19;;;12.05;100.00
7660;BME280;3872;47.902;8.162;2022-07-10T05:23:39;92579.81;;;12.22;100.00
7660;BME280;3872;47.902;8.162;2022-07-10T05:26:06;92583.31;;;12.36;100.00
7660;BME280;3872;47.902;8.162;2022-07-10T05:28:32;92582.78;;;12.53;100.00
7660;BME280;3872;47.902;8.162;2022-07-10T05:30:59;92584.13;;;12.69;100.00
7660;BME280;3872;47.902;8.162;2022-07-10T05:33:25;92575.66;;;12.53;100.00
7660;BME280;3872;47.902;8.162;2022-07-10T05:35:53;92584.63;;;12.71;100.00
7660;BME280;3872;47.902;8.162;2022-07-10T05:38:20;92580.06;;;12.58;100.00
7660;BME280;3872;47.902;8.162;2022-07-10T05:40:48;92590.53;;;12.49;100.00
7660;BME280;3872;47.902;8.162;2022-07-10T05:43:16;92582.84;;;12.67;100.00
7660;BME280;3872;47.902;8.162;2022-07-10T05:45:43;92587.41;;;12.93;100.00
7660;BME280;3872;47.902;8.162;2022-07-10T05:48:10;92589.56;;;13.24;100.00
7660;BME280;3872;47.902;8.162;2022-07-10T05:50:37;92585.34;;;13.23;100.00
7660;BME280;3872;47.902;8.162;2022-07-10T05:53:04;92582.31;;;13.43;100.00
7660;BME280;3872;47.902;8.162;2022-07-10T05:55:30;92583.31;;;13.47;100.00
7660;BME280;3872;47.902;8.162;2022-07-10T05:57:58;92584.38;;;13.60;100.00
7660;BME280;3872;47.902;8.162;2022-07-10T06:00:25;92586.47;;;13.63;100.00
7660;BME280;3872;47.902;8.162;2022-07-10T06:03:17;92580.47;;;13.71;100.00
7660;BME280;3872;47.902;8.162;2022-07-10T06:05:46;92577.72;;;13.90;100.00
7660;BME280;3872;47.902;8.162;2022-07-10T06:08:13;92572.84;;;13.69;100.00
7660;BME280;3872;47.902;8.162;2022-07-10T06:10:40;92573.00;;;13.87;100.00
7660;BME280;3872;47.902;8.162;2022-07-10T06:13:13;92577.47;;;14.00;100.00
7660;BME280;3872;47.902;8.162;2022-07-10T06:15:43;92570.81;;;14.02;100.00
7660;BME280;3872;47.902;8.162;2022-07-10T06:18:09;92567.19;;;14.12;100.00
7660;BME280;3872;47.902;8.162;2022-07-10T06:20:36;92566.97;;;14.08;100.00
7660;BME280;3872;47.902;8.162;2022-07-10T06:23:02;92567.25;;;14.21;100.00
7660;BME280;3872;47.902;8.162;2022-07-10T06:25:30;92565.47;;;14.30;100.00
7660;BME280;3872;47.902;8.162;2022-07-10T06:27:56;92568.03;;;14.21;100.00
7660;BME280;3872;47.902;8.162;2022-07-10T06:30:24;92569.84;;;14.48;100.00
7660;BME280;3872;47.902;8.162;2022-07-10T06:32:51;92575.75;;;14.45;100.00
7660;BME280;3872;47.902;8.162;2022-07-10T06:35:17;92584.47;;;14.90;100.00
7660;BME280;3872;47.902;8.162;2022-07-10T06:37:44;92583.97;;;15.10;100.00
7660;BME280;3872;47.902;8.162;2022-07-10T06:40:12;92582.06;;;15.33;100.00
7660;BME280;3872;47.902;8.162;2022-07-10T06:42:39;92579.16;;;15.12;100.00
7660;BME280;3872;47.902;8.162;2022-07-10T06:45:10;92584.38;;;15.26;100.00
7660;BME280;3872;47.902;8.162;2022-07-10T06:47:39;92585.00;;;15.54;100.00
7660;BME280;3872;47.902;8.162;2022-07-10T06:50:25;92587.91;;;15.83;100.00
7660;BME280;3872;47.902;8.162;2022-07-10T06:52:52;92581.97;;;15.86;100.00
7660;BME280;3872;47.902;8.162;2022-07-10T06:55:19;92588.53;;;15.89;100.00
7660;BME280;3872;47.902;8.162;2022-07-10T06:57:46;92587.97;;;16.09;100.00
7660;BME280;3872;47.902;8.162;2022-07-10T07:00:13;92584.84;;;16.16;100.00
7660;BME280;3872;47.902;8.162;2022-07-10T07:02:42;92590.47;;;16.14;100.00
7660;BME280;3872;47.902;8.162;2022-07-10T07:05:09;92582.03;;;16.03;100.00
7660;BME280;3872;47.902;8.162;2022-07-10T07:07:36;92583.94;;;16.46;100.00
7660;BME280;3872;47.902;8.162;2022-07-10T07:10:03;92570.84;;;16.75;100.00
7660;BME280;3872;47.902;8.162;2022-07-10T07:12:30;92569.06;;;17.14;100.00
7660;BME280;3872;47.902;8.162;2022-07-10T07:14:57;92574.06;;;17.15;100.00
7660;BME280;3872;47.902;8.162;2022-07-10T07:17:24;92575.31;;;17.18;100.00
7660;BME280;3872;47.902;8.162;2022-07-10T07:20:00;92580.63;;;17.18;100.00
7660;BME280;3872;47.902;8.162;2022-07-10T07:22:44;92577.09;;;17.52;100.00
7660;BME280;3872;47.902;8.162;2022-07-10T07:25:28;92584.53;;;18.05;100.00
7660;BME280;3872;47.902;8.162;2022-07-10T07:27:55;92576.13;;;18.03;100.00
7660;BME280;3872;47.902;8.162;2022-07-10T07:30:22;92581.69;;;17.81;100.00
7660;BME280;3872;47.902;8.162;2022-07-10T07:32:48;92582.63;;;17.30;100.00
7660;BME280;3872;47.902;8.162;2022-07-10T07:35:16;92577.00;;;17.78;100.00
7660;BME280;3872;47.902;8.162;2022-07-10T07:37:45;92574.38;;;18.57;100.00
7660;BME280;3872;47.902;8.162;2022-07-10T07:40:14;92582.84;;;18.00;100.00
7660;BME280;3872;47.902;8.162;2022-07-10T07:42:42;92580.81;;;18.48;100.00
7660;BME280;3872;47.902;8.162;2022-07-10T07:45:09;92579.16;;;18.14;100.00
7660;BME280;3872;47.902;8.162;2022-07-10T07:47:45;92575.31;;;18.53;100.00
7660;BME280;3872;47.902;8.162;2022-07-10T07:50:13;92578.94;;;17.60;100.00
7660;BME280;3872;47.902;8.162;2022-07-10T07:52:42;92577.75;;;18.16;100.00
7660;BME280;3872;47.902;8.162;2022-07-10T07:55:09;92576.22;;;18.36;100.00
7660;BME280;3872;47.902;8.162;2022-07-10T07:57:36;92573.28;;;18.91;100.00
7660;BME280;3872;47.902;8.162;2022-07-10T08:00:05;92570.41;;;18.13;100.00
7660;BME280;3872;47.902;8.162;2022-07-10T08:02:37;92574.31;;;18.16;100.00
7660;BME280;3872;47.902;8.162;2022-07-10T08:05:05;92577.25;;;17.93;100.00
7660;BME280;3872;47.902;8.162;2022-07-10T08:07:36;92578.84;;;18.65;100.00
7660;BME280;3872;47.902;8.162;2022-07-10T08:10:06;92569.94;;;19.15;100.00
7660;BME280;3872;47.902;8.162;2022-07-10T08:12:34;92580.09;;;19.79;100.00
7660;BME280;3872;47.902;8.162;2022-07-10T08:15:00;92565.69;;;18.19;100.00
7660;BME280;3872;47.902;8.162;2022-07-10T08:17:27;92568.94;;;18.24;100.00
7660;BME280;3872;47.902;8.162;2022-07-10T08:19:54;92566.34;;;18.36;100.00
7660;BME280;3872;47.902;8.162;2022-07-10T08:22:20;92565.53;;;17.86;100.00
7660;BME280;3872;47.902;8.162;2022-07-10T08:24:47;92562.69;;;17.53;100.00
7660;BME280;3872;47.902;8.162;2022-07-10T08:27:15;92566.28;;;17.95;100.00
7660;BME280;3872;47.902;8.162;2022-07-10T08:29:42;92560.16;;;18.45;100.00
7660;BME280;3872;47.902;8.162;2022-07-10T08:32:09;92568.69;;;19.12;100.00
7660;BME280;3872;47.902;8.162;2022-07-10T08:34:35;92563.63;;;18.66;100.00
7660;BME280;3872;47.902;8.162;2022-07-10T08:37:02;92574.72;;;17.68;100.00
7660;BME280;3872;47.902;8.162;2022-07-10T08:39:29;92569.94;;;17.27;100.00
7660;BME280;3872;47.902;8.162;2022-07-10T08:41:56;92574.59;;;16.66;100.00
7660;BME280;3872;47.902;8.162;2022-07-10T08:44:24;92564.34;;;17.19;100.00
7660;BME280;3872;47.902;8.162;2022-07-10T08:46:51;92562.50;;;17.58;100.00
7660;BME280;3872;47.902;8.162;2022-07-10T08:49:20;92564.31;;;17.37;100.00
7660;BME280;3872;47.902;8.162;2022-07-10T08:51:57;92567.09;;;17.87;100.00
7660;BME280;3872;47.902;8.162;2022-07-10T08:54:25;92560.25;;;17.77;100.00
7660;BME280;3872;47.902;8.162;2022-07-10T08:56:53;92561.34;;;18.06;100.00
7660;BME280;3872;47.902;8.162;2022-07-10T08:59:22;92564.56;;;18.20;100.00
7660;BME280;3872;47.902;8.162;2022-07-10T09:01:50;92566.78;;;18.38;100.00
7660;BME280;3872;47.902;8.162;2022-07-10T09:04:20;92563.97;;;17.85;100.00
7660;BME280;3872;47.902;8.162;2022-07-10T09:06:47;92554.69;;;18.20;100.00
7660;BME280;3872;47.902;8.162;2022-07-10T09:09:14;92558.63;;;18.14;100.00
7660;BME280;3872;47.902;8.162;2022-07-10T09:11:41;92563.28;;;18.26;100.00
7660;BME280;3872;47.902;8.162;2022-07-10T09:14:10;92559.09;;;18.66;100.00
7660;BME280;3872;47.902;8.162;2022-07-10T09:16:38;92563.34;;;18.38;100.00
7660;BME280;3872;47.902;8.162;2022-07-10T09:19:17;92557.47;;;19.07;100.00
7660;BME280;3872;47.902;8.162;2022-07-10T09:21:45;92549.69;;;19.47;100.00
7660;BME280;3872;47.902;8.162;2022-07-10T09:24:12;92546.56;;;20.30;81.63
7660;BME280;3872;47.902;8.162;2022-07-10T09:26:40;92558.72;;;19.91;77.43
7660;BME280;3872;47.902;8.162;2022-07-10T09:29:07;92561.00;;;19.32;82.93
7660;BME280;3872;47.902;8.162;2022-07-10T09:31:51;92558.31;;;19.89;80.52
7660;BME280;3872;47.902;8.162;2022-07-10T09:34:35;92554.06;;;19.88;81.08
7660;BME280;3872;47.902;8.162;2022-07-10T09:37:17;92556.69;;;20.49;79.66
7660;BME280;3872;47.902;8.162;2022-07-10T09:39:51;92540.00;;;21.07;74.65
7660;BME280;3872;47.902;8.162;2022-07-10T09:42:24;92552.59;;;20.79;73.21
7660;BME280;3872;47.902;8.162;2022-07-10T09:44:51;92548.50;;;20.97;72.49
7660;BME280;3872;47.902;8.162;2022-07-10T09:47:21;92561.84;;;20.42;74.73
7660;BME280;3872;47.902;8.162;2022-07-10T09:49:49;92558.16;;;19.98;77.54
7660;BME280;3872;47.902;8.162;2022-07-10T09:52:18;92555.38;;;20.18;78.61
7660;BME280;3872;47.902;8.162;2022-07-10T09:54:44;92561.00;;;19.44;84.68
7660;BME280;3872;47.902;8.162;2022-07-10T09:57:12;92560.16;;;18.86;84.53
7660;BME280;3872;47.902;8.162;2022-07-10T09:59:41;92555.09;;;18.52;85.17
7660;BME280;3872;47.902;8.162;2022-07-10T10:02:09;92555.84;;;19.60;80.31
7660;BME280;3872;47.902;8.162;2022-07-10T10:04:37;92554.88;;;18.98;80.67
7660;BME280;3872;47.902;8.162;2022-07-10T10:07:08;92549.94;;;19.78;76.59
7660;BME280;3872;47.902;8.162;2022-07-10T10:09:39;92555.81;;;18.82;81.76
7660;BME280;3872;47.902;8.162;2022-07-10T10:12:09;92548.59;;;19.84;81.13
7660;BME280;3872;47.902;8.162;2022-07-10T10:14:40;92547.16;;;19.99;82.28
7660;BME280;3872;47.902;8.162;2022-07-10T10:17:08;92549.72;;;19.26;83.91
7660;BME280;3872;47.902;8.162;2022-07-10T10:19:48;92540.88;;;20.56;75.71
7660;BME280;3872;47.902;8.162;2022-07-10T10:22:44;92541.41;;;20.61;74.90
7660;BME280;3872;47.902;8.162;2022-07-10T10:25:22;92543.59;;;20.99;71.63
7660;BME280;3872;47.902;8.162;2022-07-10T10:27:51;92536.09;;;21.17;68.04
7660;BME280;3872;47.902;8.162;2022-07-10T10:30:18;92541.59;;;21.99;68.18
7660;BME280;3872;47.902;8.162;2022-07-10T10:32:45;92534.66;;;22.49;63.71
7660;BME280;3872;47.902;8.162;2022-07-10T10:35:42;92542.88;;;20.87;65.58
7660;BME280;3872;47.902;8.162;2022-07-10T10:38:14;92545.75;;;20.66;59.40
7660;BME280;3872;47.902;8.162;2022-07-10T10:40:42;92536.75;;;21.14;60.24
7660;BME280;3872;47.902;8.162;2022-07-10T10:43:18;92529.66;;;21.97;58.81
7660;BME280;3872;47.902;8.162;2022-07-10T10:45:46;92537.59;;;21.62;63.34
7660;BME280;3872;47.902;8.162;2022-07-10T10:48:13;92538.56;;;22.01;64.27
7660;BME280;3872;47.902;8.162;2022-07-10T10:50:41;92547.59;;;21.05;68.54
7660;BME280;3872;47.902;8.162;2022-07-10T10:53:21;92564.31;;;20.10;65.96
7660;BME280;3872;47.902;8.162;2022-07-10T10:56:21;92549.03;;;20.75;61.47
7660;BME280;3872;47.902;8.162;2022-07-10T10:58:49;92536.41;;;22.41;57.12
7660;BME280;3872;47.902;8.162;2022-07-10T11:01:29;92537.56;;;22.59;59.75
7660;BME280;3872;47.902;8.162;2022-07-10T11:04:13;92526.31;;;22.89;60.80
7660;BME280;3872;47.902;8.162;2022-07-10T11:06:40;92527.16;;;23.54;61.01
7660;BME280;3872;47.902;8.162;2022-07-10T11:09:24;92526.50;;;21.32;64.17
7660;BME280;3872;47.902;8.162;2022-07-10T11:12:01;92525.72;;;23.37;58.43
7660;BME280;3872;47.902;8.162;2022-07-10T11:14:29;92527.44;;;22.34;58.45
7660;BME280;3872;47.902;8.162;2022-07-10T11:16:56;92528.34;;;21.91;59.67
7660;BME280;3872;47.902;8.162;2022-07-10T11:19:27;92520.25;;;23.34;59.12
7660;BME280;3872;47.902;8.162;2022-07-10T11:22:25;92520.03;;;24.11;51.46
7660;BME280;3872;47.902;8.162;2022-07-10T11:25:07;92528.84;;;23.62;50.43
7660;BME280;3872;47.902;8.162;2022-07-10T11:27:56;92527.97;;;23.16;54.02
7660;BME280;3872;47.902;8.162;2022-07-10T11:30:26;92524.38;;;24.19;47.85
7660;BME280;3872;47.902;8.162;2022-07-10T11:32:53;92519.06;;;24.79;47.69
7660;BME280;3872;47.902;8.162;2022-07-10T11:35:20;92516.22;;;23.01;48.59
7660;BME280;3872;47.902;8.162;2022-07-10T11:37:50;92515.22;;;24.80;48.88
7660;BME280;3872;47.902;8.162;2022-07-10T11:40:20;92514.66;;;25.27;48.08
7660;BME280;3872;47.902;8.162;2022-07-10T11:42:51;92509.72;;;24.99;48.92
7660;BME280;3872;47.902;8.162;2022-07-10T11:45:25;92504.03;;;25.45;44.84
7660;BME280;3872;47.902;8.162;2022-07-10T11:47:53;92505.78;;;25.26;46.77
7660;BME280;3872;47.902;8.162;2022-07-10T11:50:20;92506.59;;;25.64;41.15
7660;BME280;3872;47.902;8.162;2022-07-10T11:52:46;92507.97;;;25.91;41.21
7660;BME280;3872;47.902;8.162;2022-07-10T11:55:14;92518.88;;;23.63;43.87
7660;BME280;3872;47.902;8.162;2022-07-10T11:57:42;92509.69;;;23.64;47.24
7660;BME280;3872;47.902;8.162;2022-07-10T12:00:21;92515.16;;;25.36;43.12
7660;BME280;3872;47.902;8.162;2022-07-10T12:02:49;92526.19;;;21.96;49.77
7660;BME280;3872;47.902;8.162;2022-07-10T12:05:29;92513.28;;;24.21;45.47
7660;BME280;3872;47.902;8.162;2022-07-10T12:07:56;92517.16;;;24.49;44.64
7660;BME280;3872;47.902;8.162;2022-07-10T12:10:25;92526.50;;;23.61;43.86
7660;BME280;3872;47.902;8.162;2022-07-10T12:13:02;92518.94;;;24.98;45.08
7660;BME280;3872;47.902;8.162;2022-07-10T12:15:36;92509.66;;;25.66;41.76
7660;BME280;3872;47.902;8.162;2022-07-10T12:18:05;92520.50;;;23.06;48.22
7660;BME280;3872;47.902;8.162;2022-07-10T12:20:32;92507.47;;;25.05;44.79
7660;BME280;3872;47.902;8.162;2022-07-10T12:22:59;92504.94;;;24.85;43.86
7660;BME280;3872;47.902;8.162;2022-07-10T12:25:26;92517.13;;;22.16;50.95
7660;BME280;3872;47.902;8.162;2022-07-10T12:27:57;92516.94;;;21.78;52.21
7660;BME280;3872;47.902;8.162;2022-07-10T12:30:36;92502.13;;;22.70;51.47
7660;BME280;3872;47.902;8.162;2022-07-10T12:33:10;92507.13;;;23.29;48.57
7660;BME280;3872;47.902;8.162;2022-07-10T12:35:49;92508.44;;;25.23;45.29
7660;BME280;3872;47.902;8.162;2022-07-10T12:38:18;92504.22;;;24.32;47.02
7660;BME280;3872;47.902;8.162;2022-07-10T12:40:45;92516.19;;;23.86;47.62
7660;BME280;3872;47.902;8.162;2022-07-10T12:43:23;92514.84;;;24.22;43.95
7660;BME280;3872;47.902;8.162;2022-07-10T12:46:09;92525.31;;;21.61;49.69
7660;BME280;3872;47.902;8.162;2022-07-10T12:48:36;92520.44;;;24.36;44.43
7660;BME280;3872;47.902;8.162;2022-07-10T12:51:24;92514.53;;;24.27;48.05
7660;BME280;3872;47.902;8.162;2022-07-10T12:53:51;92507.28;;;24.61;47.21
7660;BME280;3872;47.902;8.162;2022-07-10T12:56:34;92515.66;;;24.26;49.63
7660;BME280;3872;47.902;8.162;2022-07-10T12:59:12;92502.22;;;25.93;44.21
7660;BME280;3872;47.902;8.162;2022-07-10T13:01:41;92511.44;;;25.92;42.69
7660;BME280;3872;47.902;8.162;2022-07-10T13:04:09;92510.56;;;25.40;43.49
7660;BME280;3872;47.902;8.162;2022-07-10T13:06:37;92509.31;;;26.77;41.79
7660;BME280;3872;47.902;8.162;2022-07-10T13:09:18;92513.94;;;26.15;41.48
7660;BME280;3872;47.902;8.162;2022-07-10T13:11:45;92515.84;;;25.66;42.76
7660;BME280;3872;47.902;8.162;2022-07-10T13:14:13;92520.72;;;24.57;44.73
7660;BME280;3872;47.902;8.162;2022-07-10T13:16:39;92523.16;;;21.82;49.05
7660;BME280;3872;47.902;8.162;2022-07-10T13:19:06;92518.88;;;23.63;45.17
7660;BME280;3872;47.902;8.162;2022-07-10T13:21:32;92507.78;;;25.33;43.03
7660;BME280;3872;47.902;8.162;2022-07-10T13:23:59;92505.00;;;25.59;41.64
7660;BME280;3872;47.902;8.162;2022-07-10T13:26:26;92518.81;;;23.59;46.67